createdAt,value
2022-09-07T00:00:50.245Z,3.22
2022-09-07T00:05:52.916Z,3.28
2022-09-07T00:11:03.580Z,3.00
2022-09-07T00:16:08.648Z,2.95
2022-09-07T00:21:11.732Z,3.33
2022-09-07T00:26:18.049Z,3.53
2022-09-07T00:31:22.776Z,3.13
2022-09-07T00:36:25.450Z,3.40
2022-09-07T00:41:27.843Z,3.00
2022-09-07T00:46:35.361Z,2.90
2022-09-07T00:51:52.867Z,3.95
2022-09-07T00:56:56.865Z,3.40
2022-09-07T01:01:59.616Z,3.22
2022-09-07T01:07:04.079Z,3.05
2022-09-07T01:12:07.980Z,3.20
2022-09-07T01:17:32.342Z,3.70
2022-09-07T01:23:11.887Z,3.67
2022-09-07T01:28:27.606Z,3.28
2022-09-07T01:33:38.864Z,3.40
2022-09-07T01:39:02.755Z,3.78
2022-09-07T01:44:10.771Z,4.18
2022-09-07T01:49:21.769Z,2.97
2022-09-07T01:54:29.728Z,3.63
2022-09-07T01:59:50.427Z,3.03
2022-09-07T02:05:08.035Z,2.97
2022-09-07T02:10:16.673Z,2.83
2022-09-07T02:15:26.265Z,3.67
2022-09-07T02:20:53.100Z,2.90
2022-09-07T02:26:10.865Z,3.55
2022-09-07T02:31:13.471Z,3.13
2022-09-07T02:36:22.000Z,3.35
2022-09-07T02:41:36.020Z,3.80
2022-09-07T02:47:21.848Z,3.42
2022-09-07T02:52:47.336Z,3.15
2022-09-07T02:58:11.010Z,3.17
2022-09-07T03:03:32.386Z,3.60
2022-09-07T03:13:47.412Z,4.03
2022-09-07T03:18:49.987Z,3.72
2022-09-07T03:23:53.336Z,3.70
2022-09-07T03:28:55.672Z,3.83
2022-09-07T03:33:57.924Z,3.97
2022-09-07T03:39:00.699Z,3.88
2022-09-07T03:44:07.170Z,3.22
2022-09-07T03:49:09.299Z,3.92
2022-09-07T03:54:11.576Z,4.13
2022-09-07T03:59:13.889Z,3.17
2022-09-07T04:04:16.130Z,3.60
2022-09-07T04:09:18.392Z,4.05
2022-09-07T04:14:20.690Z,3.95
2022-09-07T04:19:23.313Z,3.65
2022-09-07T04:24:25.819Z,3.78
2022-09-07T04:29:28.121Z,3.85
2022-09-07T04:34:30.611Z,4.03
2022-09-07T04:39:32.908Z,4.72
2022-09-07T04:44:35.637Z,3.92
2022-09-07T04:49:37.838Z,3.70
2022-09-07T04:54:40.097Z,4.15
2022-09-07T04:59:42.382Z,4.10
2022-09-07T05:04:44.801Z,4.35
2022-09-07T05:09:47.497Z,4.15
2022-09-07T05:14:49.809Z,4.90
2022-09-07T05:19:52.262Z,4.07
2022-09-07T05:24:54.906Z,3.42
2022-09-07T05:35:02.417Z,3.45
2022-09-07T05:40:05.687Z,3.58
2022-09-07T05:45:08.465Z,2.83
2022-09-07T05:50:11.678Z,2.40
2022-09-07T05:55:29.290Z,2.15
2022-09-07T06:00:32.442Z,2.30
2022-09-07T06:05:34.747Z,2.70
2022-09-07T14:13:34.302Z,2.33
2022-09-07T14:18:37.055Z,5.47
2022-09-07T14:23:41.861Z,2.47
2022-09-07T14:28:46.193Z,9.05
2022-09-07T14:33:57.238Z,19.02
2022-09-07T14:39:04.304Z,6.15
2022-09-07T14:44:07.085Z,4.78
2022-09-07T14:49:21.320Z,3.83
2022-09-07T14:54:28.229Z,4.25
2022-09-07T14:59:45.969Z,3.55
2022-09-07T15:05:10.118Z,3.38
2022-09-07T15:10:33.495Z,3.95
2022-09-07T15:15:39.751Z,3.30
2022-09-07T15:20:44.534Z,5.65
2022-09-07T15:25:53.695Z,5.47
2022-09-07T15:36:20.441Z,11.52
2022-09-07T15:41:24.566Z,62.65
2022-09-07T15:46:28.044Z,12.18
2022-09-07T16:13:16.846Z,13.38
2022-09-07T16:18:39.280Z,8.43
2022-09-07T16:23:55.281Z,24.30
2022-09-07T16:28:58.597Z,41.33
2022-09-07T16:34:02.527Z,39.85
2022-09-07T16:39:05.025Z,44.85
2022-09-07T16:44:07.883Z,54.75
2022-09-07T16:49:11.351Z,38.80
2022-09-07T16:54:14.665Z,60.65
2022-09-07T16:59:21.673Z,55.88
2022-09-07T17:04:24.205Z,47.78
2022-09-07T17:21:38.084Z,33.33
2022-09-07T17:37:09.113Z,23.45
2022-09-07T17:42:11.484Z,19.02
2022-09-07T17:47:13.779Z,11.30
2022-09-07T17:52:15.956Z,8.80
2022-09-07T17:57:18.024Z,8.63
2022-09-07T18:02:20.590Z,8.45
2022-09-07T18:07:22.881Z,8.85
2022-09-07T18:12:25.114Z,9.68
2022-09-07T18:17:27.450Z,9.45
2022-09-07T18:22:29.865Z,9.05
2022-09-07T18:27:32.312Z,9.40
2022-09-07T18:32:34.717Z,9.65
2022-09-07T18:37:38.303Z,8.65
2022-09-07T18:42:42.556Z,8.57
2022-09-07T18:47:50.174Z,10.30
2022-09-07T18:52:53.364Z,8.30
2022-09-07T18:57:56.188Z,16.55
2022-09-07T19:02:59.629Z,9.55
2022-09-07T19:08:04.181Z,11.40
2022-09-07T19:13:06.683Z,10.60
2022-09-07T19:18:09.934Z,24.10
2022-09-07T19:23:12.063Z,16.60
2022-09-07T19:28:14.872Z,14.18
2022-09-07T19:33:17.037Z,15.13
2022-09-07T19:38:43.722Z,9.15
2022-09-07T19:43:47.251Z,9.40
2022-09-07T19:48:49.820Z,7.85
2022-09-07T19:53:52.080Z,58.40
2022-09-07T19:58:54.878Z,18.17
2022-09-07T20:04:03.814Z,8.57
2022-09-07T20:09:08.538Z,15.93
2022-09-07T20:14:10.954Z,9.80
2022-09-07T20:19:17.591Z,9.95
2022-09-07T20:24:22.705Z,8.20
2022-09-07T20:29:29.076Z,8.30
2022-09-07T20:34:32.338Z,13.88
2022-09-07T20:39:38.927Z,8.07
2022-09-07T20:44:41.645Z,30.15
2022-09-07T20:49:44.104Z,12.82
2022-09-07T20:54:46.395Z,16.30
2022-09-07T20:59:48.713Z,44.83
2022-09-07T21:04:51.354Z,49.42
2022-09-07T21:09:53.592Z,10.85
2022-09-07T21:14:55.907Z,7.55
2022-09-07T21:19:58.049Z,8.30
2022-09-07T21:25:00.334Z,12.20
2022-09-07T21:30:02.614Z,7.80
2022-09-07T21:35:05.057Z,8.65
2022-09-07T21:40:08.179Z,7.07
2022-09-07T21:45:12.738Z,9.48
2022-09-07T21:50:14.974Z,9.38
2022-09-07T21:55:17.394Z,10.85
2022-09-07T22:00:19.760Z,7.35
2022-09-07T22:05:22.287Z,8.63
2022-09-07T22:10:24.563Z,6.85
2022-09-07T22:15:26.871Z,8.23
2022-09-07T22:20:28.947Z,7.25
2022-09-07T22:25:31.905Z,7.68
2022-09-07T22:30:34.103Z,8.27
2022-09-07T22:35:36.180Z,7.00
2022-09-07T22:40:38.534Z,7.18
2022-09-07T22:45:40.632Z,6.57
2022-09-07T22:50:42.985Z,7.05
2022-09-07T22:55:45.447Z,6.82
2022-09-07T23:00:47.715Z,6.55
2022-09-07T23:05:49.903Z,7.78
2022-09-07T23:10:52.455Z,6.03
2022-09-07T23:43:32.756Z,5.80
2022-09-07T23:48:35.216Z,6.28
2022-09-07T23:53:37.402Z,6.70
2022-09-07T23:58:39.538Z,5.78
